Kuttawa, KY (42055)

10:13 PM CDT on July 25, 2016 (GMT -0500)
yopp road | | Change Station

Elev 394 ft 37.01 °N, 88.16 °W | Updated 30 seconds ago

Clear
Clear
78.6 °F
Feels Like 82 °F
N
0.0
Wind Variable Wind from ESE
Gusts 0.0 mph

Today
High -- | Low -- °F
--% Chance of Precip.
Yesterday
High -- | Low -- °F
Precip. -- in
Pressure 29.99 in
Visibility 7.0 miles
Clouds Clear
Heat Index 82 °F
Dew Point 76 °F
Humidity 91%
Rainfall 0.18 in
Snow Depth Not available.
5:52 AM 8:05 PM
Waning Gibbous, 59% visible
METAR K5M9 260255Z AUTO 00000KT 7SM CLR 24/24 A2999 RMK AO2 T02380238
Pressure 29.99 in
Visibility 7.0 miles
Clouds Clear
Heat Index 82 °F
Dew Point 76 °F
Humidity 91%
Rainfall 0.18 in
Snow Depth Not available.
5:52 AM 8:05 PM
Waning Gibbous, 59% visible
METAR K5M9 260255Z AUTO 00000KT 7SM CLR 24/24 A2999 RMK AO2 T02380238
Record highs are possible for parts of the Northeast Monday and Tuesday, as parts of the central U.S. take a little breather from the worst of summer's dog day heat.

Expansive high pressure in the upper atmosphere will focus on parts of the East and West this week, sending heat indices well into the triple digits from the Mid-Atlantic states into the South.

10-Day Weather Forecast

Almanac

Astronomy

Jul. 25, 2016 Rise Set
Actual Time
Civil Twilight
Nautical Twilight
Astronomical Twilight
Moon
Length of Visible Light
Length of Day
Tomorrow will be .
, % of the Moon is Illuminated

Today's Extremes

State Highs State Lows

Community

WunderPhotos

Upload Photos

1,927,514 photos uploaded!

WunderBlog® & News

Nearby

Air Quality

  Air Quality AQ Index Pollutant
Not available.

Snow Depth

Station Depth Elevation

Earthquake Activity

City Distance Mag. Time & Date
Minimum magnitude displayed is 2.5.

Coastal Water Temperatures

Place Temperature

Stations

Nearby Weather Stations

Station Location Temp. Windchill Dew Point Humidity Wind Precip. Elev Updated Type
                   

Watches & Warnings

There are currently no watches in effect.